sensor_id;sensor_type;location;lat;lon;timestamp;P1;durP1;ratioP1;P2;durP2;ratioP2
14141;SDS011;7151;52.246;4.820;2023-06-14T00:01:17;1.90;;;1.67;;
14141;SDS011;7151;52.246;4.820;2023-06-14T00:03:45;2.67;;;2.13;;
14141;SDS011;7151;52.246;4.820;2023-06-14T00:06:12;2.40;;;2.17;;
14141;SDS011;7151;52.246;4.820;2023-06-14T00:08:38;3.27;;;1.83;;
14141;SDS011;7151;52.246;4.820;2023-06-14T00:11:04;2.40;;;1.70;;
14141;SDS011;7151;52.246;4.820;2023-06-14T00:13:30;6.90;;;1.90;;
14141;SDS011;7151;52.246;4.820;2023-06-14T00:15:56;3.70;;;2.30;;
14141;SDS011;7151;52.246;4.820;2023-06-14T00:18:22;2.07;;;1.73;;
14141;SDS011;7151;52.246;4.820;2023-06-14T00:20:49;3.23;;;1.87;;
14141;SDS011;7151;52.246;4.820;2023-06-14T00:23:16;15.13;;;2.20;;
14141;SDS011;7151;52.246;4.820;2023-06-14T00:25:41;2.00;;;1.80;;
14141;SDS011;7151;52.246;4.820;2023-06-14T00:28:07;3.40;;;1.77;;
14141;SDS011;7151;52.246;4.820;2023-06-14T00:30:32;2.07;;;1.87;;
14141;SDS011;7151;52.246;4.820;2023-06-14T00:32:58;3.40;;;2.00;;
14141;SDS011;7151;52.246;4.820;2023-06-14T00:35:24;3.63;;;1.60;;
14141;SDS011;7151;52.246;4.820;2023-06-14T00:37:50;3.93;;;2.23;;
14141;SDS011;7151;52.246;4.820;2023-06-14T00:40:16;2.67;;;1.67;;
14141;SDS011;7151;52.246;4.820;2023-06-14T00:42:41;2.63;;;1.73;;
14141;SDS011;7151;52.246;4.820;2023-06-14T00:45:07;4.93;;;1.80;;
14141;SDS011;7151;52.246;4.820;2023-06-14T00:47:34;6.70;;;1.90;;
14141;SDS011;7151;52.246;4.820;2023-06-14T00:50:02;2.67;;;1.90;;
14141;SDS011;7151;52.246;4.820;2023-06-14T00:52:28;2.87;;;1.80;;
14141;SDS011;7151;52.246;4.820;2023-06-14T00:54:54;3.67;;;2.07;;
14141;SDS011;7151;52.246;4.820;2023-06-14T00:57:20;2.63;;;1.93;;
14141;SDS011;7151;52.246;4.820;2023-06-14T00:59:49;4.17;;;2.07;;
14141;SDS011;7151;52.246;4.820;2023-06-14T01:02:14;2.10;;;1.90;;
14141;SDS011;7151;52.246;4.820;2023-06-14T01:04:42;4.30;;;2.00;;
14141;SDS011;7151;52.246;4.820;2023-06-14T01:12:44;2.70;;;1.63;;
14141;SDS011;7151;52.246;4.820;2023-06-14T01:15:17;3.23;;;1.87;;
14141;SDS011;7151;52.246;4.820;2023-06-14T01:17:45;4.87;;;1.83;;
14141;SDS011;7151;52.246;4.820;2023-06-14T01:20:14;2.47;;;1.73;;
14141;SDS011;7151;52.246;4.820;2023-06-14T01:22:47;3.00;;;1.73;;
14141;SDS011;7151;52.246;4.820;2023-06-14T01:25:19;2.87;;;1.67;;
14141;SDS011;7151;52.246;4.820;2023-06-14T01:27:47;5.03;;;1.97;;
14141;SDS011;7151;52.246;4.820;2023-06-14T01:30:17;3.60;;;1.70;;
14141;SDS011;7151;52.246;4.820;2023-06-14T01:32:45;2.70;;;1.97;;
14141;SDS011;7151;52.246;4.820;2023-06-14T01:35:11;1.80;;;1.60;;
14141;SDS011;7151;52.246;4.820;2023-06-14T01:37:37;2.07;;;1.70;;
14141;SDS011;7151;52.246;4.820;2023-06-14T01:40:03;2.63;;;1.60;;
14141;SDS011;7151;52.246;4.820;2023-06-14T01:42:33;3.23;;;1.50;;
14141;SDS011;7151;52.246;4.820;2023-06-14T01:45:02;3.27;;;2.40;;
14141;SDS011;7151;52.246;4.820;2023-06-14T01:47:29;4.70;;;2.17;;
14141;SDS011;7151;52.246;4.820;2023-06-14T01:49:56;2.23;;;2.03;;
14141;SDS011;7151;52.246;4.820;2023-06-14T01:52:22;1.73;;;1.47;;
14141;SDS011;7151;52.246;4.820;2023-06-14T01:54:49;3.13;;;1.87;;
14141;SDS011;7151;52.246;4.820;2023-06-14T01:57:15;4.43;;;1.73;;
14141;SDS011;7151;52.246;4.820;2023-06-14T01:59:41;2.97;;;1.60;;
14141;SDS011;7151;52.246;4.820;2023-06-14T02:02:06;4.03;;;2.50;;
14141;SDS011;7151;52.246;4.820;2023-06-14T02:04:32;3.97;;;1.90;;
14141;SDS011;7151;52.246;4.820;2023-06-14T02:06:58;2.03;;;1.60;;
14141;SDS011;7151;52.246;4.820;2023-06-14T02:09:24;4.30;;;1.87;;
14141;SDS011;7151;52.246;4.820;2023-06-14T02:11:50;3.57;;;1.90;;
14141;SDS011;7151;52.246;4.820;2023-06-14T02:14:15;2.27;;;1.50;;
14141;SDS011;7151;52.246;4.820;2023-06-14T02:16:42;1.73;;;1.20;;
14141;SDS011;7151;52.246;4.820;2023-06-14T02:19:13;1.63;;;1.43;;
14141;SDS011;7151;52.246;4.820;2023-06-14T02:21:42;2.23;;;1.60;;
14141;SDS011;7151;52.246;4.820;2023-06-14T02:24:08;4.57;;;2.13;;
14141;SDS011;7151;52.246;4.820;2023-06-14T02:26:34;4.03;;;2.17;;
14141;SDS011;7151;52.246;4.820;2023-06-14T02:28:59;9.27;;;2.10;;
14141;SDS011;7151;52.246;4.820;2023-06-14T02:31:25;3.40;;;2.20;;
14141;SDS011;7151;52.246;4.820;2023-06-14T02:33:50;3.57;;;1.47;;
14141;SDS011;7151;52.246;4.820;2023-06-14T02:36:16;7.63;;;1.90;;
14141;SDS011;7151;52.246;4.820;2023-06-14T02:38:42;1.87;;;1.47;;
14141;SDS011;7151;52.246;4.820;2023-06-14T02:41:07;2.70;;;1.70;;
14141;SDS011;7151;52.246;4.820;2023-06-14T02:43:33;5.23;;;1.80;;
14141;SDS011;7151;52.246;4.820;2023-06-14T02:45:58;3.47;;;1.80;;
14141;SDS011;7151;52.246;4.820;2023-06-14T02:48:24;5.50;;;1.70;;
14141;SDS011;7151;52.246;4.820;2023-06-14T02:50:49;2.77;;;2.00;;
14141;SDS011;7151;52.246;4.820;2023-06-14T02:53:16;1.90;;;1.70;;
14141;SDS011;7151;52.246;4.820;2023-06-14T02:55:42;2.03;;;1.77;;
14141;SDS011;7151;52.246;4.820;2023-06-14T02:58:07;3.00;;;2.13;;
14141;SDS011;7151;52.246;4.820;2023-06-14T03:00:33;3.33;;;1.67;;
14141;SDS011;7151;52.246;4.820;2023-06-14T03:03:00;4.70;;;1.70;;
14141;SDS011;7151;52.246;4.820;2023-06-14T03:05:26;1.93;;;1.83;;
14141;SDS011;7151;52.246;4.820;2023-06-14T03:07:53;4.80;;;1.70;;
14141;SDS011;7151;52.246;4.820;2023-06-14T03:10:19;4.13;;;2.17;;
14141;SDS011;7151;52.246;4.820;2023-06-14T03:12:45;2.10;;;1.90;;
14141;SDS011;7151;52.246;4.820;2023-06-14T03:15:12;3.70;;;1.93;;
14141;SDS011;7151;52.246;4.820;2023-06-14T03:17:42;2.10;;;1.30;;
14141;SDS011;7151;52.246;4.820;2023-06-14T03:20:10;8.30;;;1.70;;
14141;SDS011;7151;52.246;4.820;2023-06-14T03:22:36;2.87;;;1.80;;
14141;SDS011;7151;52.246;4.820;2023-06-14T03:25:02;2.17;;;1.67;;
14141;SDS011;7151;52.246;4.820;2023-06-14T03:27:30;6.70;;;2.27;;
14141;SDS011;7151;52.246;4.820;2023-06-14T03:29:55;4.00;;;2.23;;
14141;SDS011;7151;52.246;4.820;2023-06-14T03:32:21;1.80;;;1.60;;
14141;SDS011;7151;52.246;4.820;2023-06-14T03:34:47;3.97;;;1.70;;
14141;SDS011;7151;52.246;4.820;2023-06-14T03:37:12;3.23;;;1.87;;
14141;SDS011;7151;52.246;4.820;2023-06-14T03:39:38;3.63;;;1.70;;
14141;SDS011;7151;52.246;4.820;2023-06-14T03:42:10;4.03;;;1.70;;
14141;SDS011;7151;52.246;4.820;2023-06-14T03:44:36;4.57;;;1.57;;
14141;SDS011;7151;52.246;4.820;2023-06-14T03:47:03;4.27;;;1.80;;
14141;SDS011;7151;52.246;4.820;2023-06-14T03:49:29;5.87;;;1.93;;
14141;SDS011;7151;52.246;4.820;2023-06-14T03:51:55;3.87;;;1.70;;
14141;SDS011;7151;52.246;4.820;2023-06-14T03:54:21;4.23;;;1.80;;
14141;SDS011;7151;52.246;4.820;2023-06-14T03:56:47;2.50;;;1.63;;
14141;SDS011;7151;52.246;4.820;2023-06-14T03:59:12;3.80;;;1.73;;
14141;SDS011;7151;52.246;4.820;2023-06-14T04:01:38;3.57;;;1.60;;
14141;SDS011;7151;52.246;4.820;2023-06-14T04:04:10;4.57;;;1.53;;
14141;SDS011;7151;52.246;4.820;2023-06-14T04:06:36;3.20;;;1.77;;
14141;SDS011;7151;52.246;4.820;2023-06-14T04:09:02;2.90;;;1.60;;
14141;SDS011;7151;52.246;4.820;2023-06-14T04:11:27;2.80;;;1.60;;
14141;SDS011;7151;52.246;4.820;2023-06-14T04:13:53;2.57;;;1.30;;
14141;SDS011;7151;52.246;4.820;2023-06-14T04:16:21;5.47;;;2.03;;
14141;SDS011;7151;52.246;4.820;2023-06-14T04:18:47;3.70;;;1.83;;
14141;SDS011;7151;52.246;4.820;2023-06-14T04:21:13;2.53;;;1.97;;
14141;SDS011;7151;52.246;4.820;2023-06-14T04:23:39;2.30;;;1.37;;
14141;SDS011;7151;52.246;4.820;2023-06-14T04:26:08;3.00;;;1.47;;
14141;SDS011;7151;52.246;4.820;2023-06-14T04:28:35;3.00;;;1.60;;
14141;SDS011;7151;52.246;4.820;2023-06-14T04:31:05;2.93;;;1.83;;
14141;SDS011;7151;52.246;4.820;2023-06-14T04:33:34;3.00;;;1.60;;
14141;SDS011;7151;52.246;4.820;2023-06-14T04:36:11;2.23;;;1.30;;
14141;SDS011;7151;52.246;4.820;2023-06-14T04:38:38;2.23;;;1.97;;
14141;SDS011;7151;52.246;4.820;2023-06-14T04:41:04;2.30;;;1.20;;
14141;SDS011;7151;52.246;4.820;2023-06-14T04:43:31;2.67;;;1.63;;
14141;SDS011;7151;52.246;4.820;2023-06-14T04:46:03;3.40;;;1.97;;
14141;SDS011;7151;52.246;4.820;2023-06-14T04:48:30;6.87;;;1.90;;
14141;SDS011;7151;52.246;4.820;2023-06-14T04:50:57;2.60;;;1.80;;
14141;SDS011;7151;52.246;4.820;2023-06-14T04:53:23;2.80;;;1.47;;
14141;SDS011;7151;52.246;4.820;2023-06-14T04:55:48;3.37;;;1.60;;
14141;SDS011;7151;52.246;4.820;2023-06-14T04:58:15;1.60;;;1.50;;
14141;SDS011;7151;52.246;4.820;2023-06-14T05:00:41;5.20;;;2.20;;
14141;SDS011;7151;52.246;4.820;2023-06-14T05:03:08;3.17;;;1.50;;
14141;SDS011;7151;52.246;4.820;2023-06-14T05:05:34;4.67;;;1.80;;
14141;SDS011;7151;52.246;4.820;2023-06-14T05:08:00;1.40;;;1.30;;
14141;SDS011;7151;52.246;4.820;2023-06-14T05:10:25;3.13;;;1.50;;
14141;SDS011;7151;52.246;4.820;2023-06-14T05:12:51;3.00;;;1.60;;
14141;SDS011;7151;52.246;4.820;2023-06-14T05:15:17;2.63;;;1.90;;
14141;SDS011;7151;52.246;4.820;2023-06-14T05:17:44;4.27;;;1.63;;
14141;SDS011;7151;52.246;4.820;2023-06-14T05:20:12;3.53;;;1.70;;
14141;SDS011;7151;52.246;4.820;2023-06-14T05:22:38;4.93;;;1.60;;
14141;SDS011;7151;52.246;4.820;2023-06-14T05:25:04;3.83;;;1.70;;
14141;SDS011;7151;52.246;4.820;2023-06-14T05:27:30;2.93;;;1.60;;
14141;SDS011;7151;52.246;4.820;2023-06-14T05:29:55;2.60;;;1.70;;
14141;SDS011;7151;52.246;4.820;2023-06-14T05:32:23;5.37;;;2.00;;
14141;SDS011;7151;52.246;4.820;2023-06-14T05:34:49;4.53;;;1.73;;
14141;SDS011;7151;52.246;4.820;2023-06-14T05:37:15;5.20;;;1.70;;
14141;SDS011;7151;52.246;4.820;2023-06-14T05:39:42;2.67;;;1.77;;
14141;SDS011;7151;52.246;4.820;2023-06-14T05:42:08;2.00;;;1.50;;
14141;SDS011;7151;52.246;4.820;2023-06-14T05:44:33;1.93;;;1.30;;
14141;SDS011;7151;52.246;4.820;2023-06-14T05:46:59;3.20;;;1.57;;
14141;SDS011;7151;52.246;4.820;2023-06-14T05:49:24;2.77;;;2.10;;
14141;SDS011;7151;52.246;4.820;2023-06-14T05:51:50;2.00;;;1.47;;
14141;SDS011;7151;52.246;4.820;2023-06-14T05:54:16;2.07;;;1.23;;
14141;SDS011;7151;52.246;4.820;2023-06-14T05:56:41;5.77;;;1.77;;
14141;SDS011;7151;52.246;4.820;2023-06-14T05:59:07;2.43;;;1.80;;
14141;SDS011;7151;52.246;4.820;2023-06-14T06:01:33;3.53;;;1.60;;
14141;SDS011;7151;52.246;4.820;2023-06-14T06:04:01;3.13;;;1.70;;
14141;SDS011;7151;52.246;4.820;2023-06-14T06:06:27;2.03;;;1.80;;
14141;SDS011;7151;52.246;4.820;2023-06-14T06:08:53;2.63;;;1.60;;
14141;SDS011;7151;52.246;4.820;2023-06-14T06:11:19;3.07;;;1.70;;
14141;SDS011;7151;52.246;4.820;2023-06-14T06:13:45;2.07;;;1.70;;
14141;SDS011;7151;52.246;4.820;2023-06-14T06:16:10;2.57;;;2.13;;
14141;SDS011;7151;52.246;4.820;2023-06-14T06:18:36;2.53;;;1.50;;
14141;SDS011;7151;52.246;4.820;2023-06-14T06:21:03;3.40;;;1.93;;
14141;SDS011;7151;52.246;4.820;2023-06-14T06:23:29;2.30;;;1.60;;
14141;SDS011;7151;52.246;4.820;2023-06-14T06:25:54;1.93;;;1.50;;
14141;SDS011;7151;52.246;4.820;2023-06-14T06:28:20;6.67;;;1.93;;
14141;SDS011;7151;52.246;4.820;2023-06-14T06:30:46;3.83;;;2.10;;
14141;SDS011;7151;52.246;4.820;2023-06-14T06:33:11;2.10;;;1.77;;
14141;SDS011;7151;52.246;4.820;2023-06-14T06:35:38;8.33;;;2.03;;
14141;SDS011;7151;52.246;4.820;2023-06-14T06:38:03;9.00;;;1.77;;
14141;SDS011;7151;52.246;4.820;2023-06-14T06:40:29;2.53;;;1.77;;
14141;SDS011;7151;52.246;4.820;2023-06-14T06:42:54;2.27;;;1.67;;
14141;SDS011;7151;52.246;4.820;2023-06-14T06:45:20;2.17;;;1.77;;
14141;SDS011;7151;52.246;4.820;2023-06-14T06:47:46;3.50;;;2.00;;
14141;SDS011;7151;52.246;4.820;2023-06-14T06:50:12;2.83;;;1.73;;
14141;SDS011;7151;52.246;4.820;2023-06-14T06:52:37;3.53;;;1.90;;
14141;SDS011;7151;52.246;4.820;2023-06-14T06:55:03;2.40;;;1.77;;
14141;SDS011;7151;52.246;4.820;2023-06-14T06:57:29;3.13;;;1.70;;
14141;SDS011;7151;52.246;4.820;2023-06-14T06:59:54;3.13;;;1.80;;
14141;SDS011;7151;52.246;4.820;2023-06-14T07:02:20;4.13;;;1.67;;
14141;SDS011;7151;52.246;4.820;2023-06-14T07:04:45;6.00;;;2.80;;
14141;SDS011;7151;52.246;4.820;2023-06-14T07:07:11;3.50;;;2.00;;
14141;SDS011;7151;52.246;4.820;2023-06-14T07:09:37;1.70;;;1.50;;
14141;SDS011;7151;52.246;4.820;2023-06-14T07:12:02;3.50;;;2.00;;
14141;SDS011;7151;52.246;4.820;2023-06-14T07:14:28;3.37;;;1.80;;
14141;SDS011;7151;52.246;4.820;2023-06-14T07:16:55;7.20;;;2.07;;
14141;SDS011;7151;52.246;4.820;2023-06-14T07:19:20;3.23;;;2.03;;
14141;SDS011;7151;52.246;4.820;2023-06-14T07:21:46;3.53;;;1.97;;
14141;SDS011;7151;52.246;4.820;2023-06-14T07:24:12;3.93;;;1.90;;
14141;SDS011;7151;52.246;4.820;2023-06-14T07:26:38;5.70;;;2.07;;
14141;SDS011;7151;52.246;4.820;2023-06-14T07:29:04;6.60;;;1.80;;
14141;SDS011;7151;52.246;4.820;2023-06-14T07:31:29;2.53;;;2.03;;
14141;SDS011;7151;52.246;4.820;2023-06-14T07:33:55;2.00;;;1.80;;
14141;SDS011;7151;52.246;4.820;2023-06-14T07:36:21;2.67;;;2.47;;
14141;SDS011;7151;52.246;4.820;2023-06-14T07:38:47;2.07;;;1.80;;
14141;SDS011;7151;52.246;4.820;2023-06-14T07:41:13;7.63;;;2.27;;
14141;SDS011;7151;52.246;4.820;2023-06-14T07:43:38;2.40;;;1.87;;
14141;SDS011;7151;52.246;4.820;2023-06-14T07:46:04;4.97;;;1.67;;
14141;SDS011;7151;52.246;4.820;2023-06-14T07:48:30;2.30;;;2.07;;
14141;SDS011;7151;52.246;4.820;2023-06-14T07:50:55;1.93;;;1.70;;
14141;SDS011;7151;52.246;4.820;2023-06-14T07:53:21;1.70;;;1.60;;
14141;SDS011;7151;52.246;4.820;2023-06-14T07:55:47;3.53;;;2.47;;
14141;SDS011;7151;52.246;4.820;2023-06-14T07:58:13;3.80;;;1.67;;
14141;SDS011;7151;52.246;4.820;2023-06-14T08:00:39;2.30;;;2.10;;
14141;SDS011;7151;52.246;4.820;2023-06-14T08:03:04;4.13;;;2.40;;
14141;SDS011;7151;52.246;4.820;2023-06-14T08:05:30;6.23;;;2.13;;
14141;SDS011;7151;52.246;4.820;2023-06-14T08:07:56;2.87;;;1.70;;
14141;SDS011;7151;52.246;4.820;2023-06-14T08:10:22;2.83;;;2.30;;
14141;SDS011;7151;52.246;4.820;2023-06-14T08:12:48;3.47;;;2.30;;
14141;SDS011;7151;52.246;4.820;2023-06-14T08:15:15;2.10;;;1.93;;
14141;SDS011;7151;52.246;4.820;2023-06-14T08:17:42;3.03;;;2.10;;
14141;SDS011;7151;52.246;4.820;2023-06-14T08:20:08;2.60;;;2.03;;
14141;SDS011;7151;52.246;4.820;2023-06-14T08:22:35;2.90;;;1.43;;
14141;SDS011;7151;52.246;4.820;2023-06-14T08:25:02;2.13;;;1.47;;
14141;SDS011;7151;52.246;4.820;2023-06-14T08:27:29;4.43;;;2.17;;
14141;SDS011;7151;52.246;4.820;2023-06-14T08:29:55;1.90;;;1.80;;
14141;SDS011;7151;52.246;4.820;2023-06-14T08:32:21;2.80;;;2.03;;
14141;SDS011;7151;52.246;4.820;2023-06-14T08:34:47;2.93;;;2.03;;
14141;SDS011;7151;52.246;4.820;2023-06-14T08:37:12;2.80;;;2.13;;
14141;SDS011;7151;52.246;4.820;2023-06-14T08:39:38;2.47;;;1.83;;
14141;SDS011;7151;52.246;4.820;2023-06-14T08:42:04;1.93;;;1.73;;
14141;SDS011;7151;52.246;4.820;2023-06-14T08:44:32;4.30;;;2.17;;
14141;SDS011;7151;52.246;4.820;2023-06-14T08:46:59;3.10;;;1.90;;
14141;SDS011;7151;52.246;4.820;2023-06-14T08:49:25;2.23;;;1.87;;
14141;SDS011;7151;52.246;4.820;2023-06-14T08:51:57;1.77;;;1.63;;
14141;SDS011;7151;52.246;4.820;2023-06-14T08:54:28;2.83;;;1.47;;
14141;SDS011;7151;52.246;4.820;2023-06-14T08:57:00;4.37;;;1.77;;
14141;SDS011;7151;52.246;4.820;2023-06-14T08:59:27;1.60;;;1.40;;
14141;SDS011;7151;52.246;4.820;2023-06-14T09:01:53;2.50;;;1.63;;
14141;SDS011;7151;52.246;4.820;2023-06-14T09:04:22;2.97;;;1.60;;
14141;SDS011;7151;52.246;4.820;2023-06-14T09:06:54;2.90;;;1.80;;
14141;SDS011;7151;52.246;4.820;2023-06-14T09:09:20;2.20;;;1.73;;
14141;SDS011;7151;52.246;4.820;2023-06-14T09:11:48;1.70;;;1.50;;
14141;SDS011;7151;52.246;4.820;2023-06-14T09:14:15;3.43;;;1.83;;
14141;SDS011;7151;52.246;4.820;2023-06-14T09:16:43;2.00;;;1.57;;
14141;SDS011;7151;52.246;4.820;2023-06-14T09:19:09;1.77;;;1.60;;
14141;SDS011;7151;52.246;4.820;2023-06-14T09:21:47;7.90;;;1.77;;
14141;SDS011;7151;52.246;4.820;2023-06-14T09:24:13;1.97;;;1.80;;
14141;SDS011;7151;52.246;4.820;2023-06-14T09:26:39;1.53;;;1.43;;
14141;SDS011;7151;52.246;4.820;2023-06-14T09:29:05;4.57;;;1.60;;
14141;SDS011;7151;52.246;4.820;2023-06-14T09:31:31;1.90;;;1.20;;
14141;SDS011;7151;52.246;4.820;2023-06-14T09:33:57;1.90;;;1.67;;
14141;SDS011;7151;52.246;4.820;2023-06-14T09:36:26;1.30;;;1.20;;
14141;SDS011;7151;52.246;4.820;2023-06-14T09:38:59;6.47;;;1.83;;
14141;SDS011;7151;52.246;4.820;2023-06-14T09:41:32;1.40;;;1.20;;
14141;SDS011;7151;52.246;4.820;2023-06-14T09:44:02;3.97;;;1.30;;
14141;SDS011;7151;52.246;4.820;2023-06-14T09:46:29;2.40;;;1.23;;
14141;SDS011;7151;52.246;4.820;2023-06-14T09:48:55;1.58;;;1.48;;
14141;SDS011;7151;52.246;4.820;2023-06-14T09:51:25;2.85;;;1.48;;
14141;SDS011;7151;52.246;4.820;2023-06-14T09:53:51;1.92;;;1.20;;
14141;SDS011;7151;52.246;4.820;2023-06-14T09:58:56;1.98;;;1.33;;
14141;SDS011;7151;52.246;4.820;2023-06-14T10:01:23;1.17;;;1.08;;
14141;SDS011;7151;52.246;4.820;2023-06-14T10:03:52;1.08;;;1.08;;
14141;SDS011;7151;52.246;4.820;2023-06-14T10:06:22;2.67;;;1.15;;
14141;SDS011;7151;52.246;4.820;2023-06-14T10:08:49;3.30;;;1.05;;
14141;SDS011;7151;52.246;4.820;2023-06-14T10:11:21;1.30;;;1.20;;
14141;SDS011;7151;52.246;4.820;2023-06-14T10:13:46;1.40;;;1.05;;
14141;SDS011;7151;52.246;4.820;2023-06-14T10:16:15;4.60;;;1.48;;
14141;SDS011;7151;52.246;4.820;2023-06-14T10:18:51;1.90;;;1.25;;
14141;SDS011;7151;52.246;4.820;2023-06-14T10:21:32;1.90;;;1.52;;
14141;SDS011;7151;52.246;4.820;2023-06-14T10:24:08;1.65;;;1.27;;
14141;SDS011;7151;52.246;4.820;2023-06-14T10:26:53;1.88;;;1.27;;
14141;SDS011;7151;52.246;4.820;2023-06-14T10:29:21;5.50;;;1.35;;
14141;SDS011;7151;52.246;4.820;2023-06-14T10:31:48;3.70;;;1.13;;
14141;SDS011;7151;52.246;4.820;2023-06-14T10:34:24;2.50;;;0.88;;
14141;SDS011;7151;52.246;4.820;2023-06-14T10:37:01;2.08;;;1.10;;
14141;SDS011;7151;52.246;4.820;2023-06-14T10:39:30;1.48;;;1.00;;
14141;SDS011;7151;52.246;4.820;2023-06-14T10:41:57;2.05;;;1.00;;
14141;SDS011;7151;52.246;4.820;2023-06-14T10:46:58;1.30;;;1.13;;
14141;SDS011;7151;52.246;4.820;2023-06-14T10:52:07;4.78;;;1.27;;
14141;SDS011;7151;52.246;4.820;2023-06-14T10:54:55;1.35;;;1.10;;
14141;SDS011;7151;52.246;4.820;2023-06-14T10:57:38;2.47;;;1.35;;
14141;SDS011;7151;52.246;4.820;2023-06-14T11:00:06;1.40;;;1.23;;
14141;SDS011;7151;52.246;4.820;2023-06-14T11:02:55;1.33;;;1.23;;
14141;SDS011;7151;52.246;4.820;2023-06-14T11:05:31;0.93;;;0.93;;
14141;SDS011;7151;52.246;4.820;2023-06-14T11:10:38;1.73;;;1.55;;
14141;SDS011;7151;52.246;4.820;2023-06-14T11:13:08;1.20;;;1.10;;
14141;SDS011;7151;52.246;4.820;2023-06-14T11:15:35;2.25;;;1.10;;
14141;SDS011;7151;52.246;4.820;2023-06-14T11:18:02;2.05;;;1.48;;
14141;SDS011;7151;52.246;4.820;2023-06-14T11:20:30;1.35;;;1.25;;
14141;SDS011;7151;52.246;4.820;2023-06-14T11:22:56;1.67;;;1.17;;
14141;SDS011;7151;52.246;4.820;2023-06-14T11:25:22;6.13;;;1.02;;
14141;SDS011;7151;52.246;4.820;2023-06-14T11:27:51;1.20;;;1.02;;
14141;SDS011;7151;52.246;4.820;2023-06-14T11:30:17;2.10;;;1.15;;
14141;SDS011;7151;52.246;4.820;2023-06-14T11:32:46;3.40;;;1.15;;
14141;SDS011;7151;52.246;4.820;2023-06-14T11:35:12;1.40;;;1.30;;
14141;SDS011;7151;52.246;4.820;2023-06-14T11:37:39;1.52;;;1.42;;
14141;SDS011;7151;52.246;4.820;2023-06-14T11:40:06;2.05;;;1.08;;
14141;SDS011;7151;52.246;4.820;2023-06-14T11:42:33;1.20;;;1.10;;
14141;SDS011;7151;52.246;4.820;2023-06-14T11:45:00;1.65;;;0.98;;
14141;SDS011;7151;52.246;4.820;2023-06-14T11:47:37;1.60;;;1.13;;
14141;SDS011;7151;52.246;4.820;2023-06-14T11:50:04;4.88;;;1.20;;
14141;SDS011;7151;52.246;4.820;2023-06-14T11:52:31;1.30;;;1.08;;
14141;SDS011;7151;52.246;4.820;2023-06-14T11:54:57;2.13;;;1.10;;
14141;SDS011;7151;52.246;4.820;2023-06-14T11:57:23;1.25;;;1.08;;
14141;SDS011;7151;52.246;4.820;2023-06-14T11:59:50;2.83;;;0.98;;
14141;SDS011;7151;52.246;4.820;2023-06-14T12:02:16;3.20;;;1.23;;
14141;SDS011;7151;52.246;4.820;2023-06-14T12:04:43;1.77;;;1.35;;
14141;SDS011;7151;52.246;4.820;2023-06-14T12:07:12;1.42;;;0.90;;
14141;SDS011;7151;52.246;4.820;2023-06-14T12:12:16;2.17;;;1.10;;
14141;SDS011;7151;52.246;4.820;2023-06-14T12:14:42;1.13;;;1.02;;
14141;SDS011;7151;52.246;4.820;2023-06-14T12:17:07;1.50;;;1.00;;
14141;SDS011;7151;52.246;4.820;2023-06-14T12:19:40;1.33;;;1.00;;
14141;SDS011;7151;52.246;4.820;2023-06-14T12:22:09;1.05;;;1.05;;
14141;SDS011;7151;52.246;4.820;2023-06-14T12:24:35;3.47;;;1.50;;
14141;SDS011;7151;52.246;4.820;2023-06-14T12:27:00;1.02;;;1.00;;
14141;SDS011;7151;52.246;4.820;2023-06-14T12:29:29;3.15;;;1.10;;
14141;SDS011;7151;52.246;4.820;2023-06-14T12:31:55;6.47;;;1.00;;
14141;SDS011;7151;52.246;4.820;2023-06-14T12:34:25;1.48;;;0.98;;
14141;SDS011;7151;52.246;4.820;2023-06-14T12:36:52;2.20;;;0.82;;
14141;SDS011;7151;52.246;4.820;2023-06-14T12:39:18;2.88;;;1.10;;
14141;SDS011;7151;52.246;4.820;2023-06-14T12:41:44;2.50;;;1.23;;
14141;SDS011;7151;52.246;4.820;2023-06-14T12:44:10;1.75;;;0.93;;
14141;SDS011;7151;52.246;4.820;2023-06-14T12:46:36;0.98;;;0.90;;
14141;SDS011;7151;52.246;4.820;2023-06-14T12:49:04;1.83;;;1.00;;
14141;SDS011;7151;52.246;4.820;2023-06-14T12:51:30;1.23;;;0.90;;
14141;SDS011;7151;52.246;4.820;2023-06-14T12:53:56;1.48;;;1.27;;
14141;SDS011;7151;52.246;4.820;2023-06-14T12:56:21;1.20;;;0.98;;
14141;SDS011;7151;52.246;4.820;2023-06-14T12:58:47;2.10;;;1.00;;
14141;SDS011;7151;52.246;4.820;2023-06-14T13:01:12;1.15;;;1.05;;
14141;SDS011;7151;52.246;4.820;2023-06-14T13:03:38;0.80;;;0.80;;
14141;SDS011;7151;52.246;4.820;2023-06-14T13:06:03;2.08;;;1.20;;
14141;SDS011;7151;52.246;4.820;2023-06-14T13:08:30;4.00;;;1.30;;
14141;SDS011;7151;52.246;4.820;2023-06-14T13:10:56;1.00;;;0.90;;
14141;SDS011;7151;52.246;4.820;2023-06-14T13:13:22;1.60;;;1.10;;
14141;SDS011;7151;52.246;4.820;2023-06-14T13:15:48;1.35;;;1.20;;
14141;SDS011;7151;52.246;4.820;2023-06-14T13:18:15;2.15;;;0.90;;
14141;SDS011;7151;52.246;4.820;2023-06-14T13:20:41;1.35;;;1.20;;
14141;SDS011;7151;52.246;4.820;2023-06-14T13:23:07;1.20;;;1.10;;
14141;SDS011;7151;52.246;4.820;2023-06-14T13:25:33;1.20;;;1.10;;
14141;SDS011;7151;52.246;4.820;2023-06-14T13:27:59;1.55;;;1.45;;
14141;SDS011;7151;52.246;4.820;2023-06-14T13:30:25;1.70;;;0.88;;
14141;SDS011;7151;52.246;4.820;2023-06-14T13:32:50;1.52;;;1.10;;
14141;SDS011;7151;52.246;4.820;2023-06-14T13:35:17;1.33;;;0.95;;
14141;SDS011;7151;52.246;4.820;2023-06-14T13:37:43;1.60;;;1.20;;
14141;SDS011;7151;52.246;4.820;2023-06-14T13:40:09;2.22;;;1.45;;
14141;SDS011;7151;52.246;4.820;2023-06-14T13:42:35;0.90;;;0.85;;
14141;SDS011;7151;52.246;4.820;2023-06-14T13:45:02;2.33;;;0.95;;
14141;SDS011;7151;52.246;4.820;2023-06-14T13:47:28;6.35;;;1.30;;
14141;SDS011;7151;52.246;4.820;2023-06-14T13:49:54;3.15;;;1.00;;
14141;SDS011;7151;52.246;4.820;2023-06-14T13:52:20;0.85;;;0.85;;
14141;SDS011;7151;52.246;4.820;2023-06-14T13:54:46;2.30;;;1.10;;
14141;SDS011;7151;52.246;4.820;2023-06-14T13:57:12;2.28;;;1.23;;
14141;SDS011;7151;52.246;4.820;2023-06-14T13:59:38;1.85;;;1.27;;
14141;SDS011;7151;52.246;4.820;2023-06-14T14:02:04;1.10;;;1.00;;
14141;SDS011;7151;52.246;4.820;2023-06-14T14:04:31;1.70;;;1.10;;
14141;SDS011;7151;52.246;4.820;2023-06-14T14:06:56;1.38;;;0.82;;
14141;SDS011;7151;52.246;4.820;2023-06-14T14:09:22;2.78;;;1.10;;
14141;SDS011;7151;52.246;4.820;2023-06-14T14:11:48;2.15;;;1.05;;
14141;SDS011;7151;52.246;4.820;2023-06-14T14:14:14;1.58;;;1.38;;
14141;SDS011;7151;52.246;4.820;2023-06-14T14:16:40;1.58;;;1.13;;
14141;SDS011;7151;52.246;4.820;2023-06-14T14:19:06;0.90;;;0.85;;
14141;SDS011;7151;52.246;4.820;2023-06-14T14:21:32;2.08;;;1.10;;
14141;SDS011;7151;52.246;4.820;2023-06-14T14:23:58;3.85;;;1.10;;
14141;SDS011;7151;52.246;4.820;2023-06-14T14:26:23;1.17;;;1.08;;
14141;SDS011;7151;52.246;4.820;2023-06-14T14:28:50;2.90;;;0.90;;
14141;SDS011;7151;52.246;4.820;2023-06-14T14:31:16;1.40;;;1.10;;
14141;SDS011;7151;52.246;4.820;2023-06-14T14:33:42;1.08;;;0.98;;
14141;SDS011;7151;52.246;4.820;2023-06-14T14:36:08;5.13;;;1.33;;
14141;SDS011;7151;52.246;4.820;2023-06-14T14:38:34;1.25;;;1.05;;
14141;SDS011;7151;52.246;4.820;2023-06-14T14:41:00;4.75;;;2.20;;
14141;SDS011;7151;52.246;4.820;2023-06-14T14:43:25;1.10;;;1.00;;
14141;SDS011;7151;52.246;4.820;2023-06-14T14:45:51;1.10;;;1.00;;
14141;SDS011;7151;52.246;4.820;2023-06-14T14:48:17;2.97;;;1.33;;
14141;SDS011;7151;52.246;4.820;2023-06-14T14:50:43;2.17;;;1.00;;
14141;SDS011;7151;52.246;4.820;2023-06-14T14:53:09;1.55;;;1.27;;
14141;SDS011;7151;52.246;4.820;2023-06-14T14:55:34;1.95;;;1.20;;
14141;SDS011;7151;52.246;4.820;2023-06-14T14:58:02;1.80;;;1.00;;
14141;SDS011;7151;52.246;4.820;2023-06-14T15:00:28;1.73;;;1.27;;
14141;SDS011;7151;52.246;4.820;2023-06-14T15:02:54;1.05;;;0.80;;
14141;SDS011;7151;52.246;4.820;2023-06-14T15:05:19;1.20;;;1.10;;
14141;SDS011;7151;52.246;4.820;2023-06-14T15:07:45;2.80;;;1.10;;
14141;SDS011;7151;52.246;4.820;2023-06-14T15:10:11;1.58;;;1.35;;
14141;SDS011;7151;52.246;4.820;2023-06-14T15:12:37;1.52;;;1.25;;
14141;SDS011;7151;52.246;4.820;2023-06-14T15:15:03;1.13;;;1.02;;
14141;SDS011;7151;52.246;4.820;2023-06-14T15:17:29;1.67;;;1.13;;